sensor_id;sensor_type;location;lat;lon;timestamp;pressure;altitude;pressure_sealevel;temperature;humidity
13080;BME280;6606;49.154;9.280;2022-10-31T00:01:58;100115.41;;;10.98;100.00
13080;BME280;6606;49.154;9.280;2022-10-31T00:04:24;100118.81;;;11.00;100.00
13080;BME280;6606;49.154;9.280;2022-10-31T00:06:51;100122.34;;;11.01;100.00
13080;BME280;6606;49.154;9.280;2022-10-31T00:09:17;100121.41;;;11.02;100.00
13080;BME280;6606;49.154;9.280;2022-10-31T00:11:44;100112.59;;;11.02;100.00
13080;BME280;6606;49.154;9.280;2022-10-31T00:14:11;100111.59;;;11.04;100.00
13080;BME280;6606;49.154;9.280;2022-10-31T00:16:39;100115.91;;;11.07;100.00
13080;BME280;6606;49.154;9.280;2022-10-31T00:19:07;100115.69;;;11.11;100.00
13080;BME280;6606;49.154;9.280;2022-10-31T00:21:35;100110.31;;;11.13;100.00
13080;BME280;6606;49.154;9.280;2022-10-31T00:24:02;100113.56;;;11.19;100.00
13080;BME280;6606;49.154;9.280;2022-10-31T00:26:29;100110.81;;;11.21;100.00
13080;BME280;6606;49.154;9.280;2022-10-31T00:28:57;100116.97;;;11.21;100.00
13080;BME280;6606;49.154;9.280;2022-10-31T00:31:24;100101.94;;;11.22;100.00
13080;BME280;6606;49.154;9.280;2022-10-31T00:33:52;100105.47;;;11.22;100.00
13080;BME280;6606;49.154;9.280;2022-10-31T00:36:19;100110.53;;;11.27;100.00
13080;BME280;6606;49.154;9.280;2022-10-31T00:38:47;100106.03;;;11.29;100.00
13080;BME280;6606;49.154;9.280;2022-10-31T00:41:15;100109.63;;;11.28;100.00
13080;BME280;6606;49.154;9.280;2022-10-31T00:43:43;100106.81;;;11.31;100.00
13080;BME280;6606;49.154;9.280;2022-10-31T00:46:10;100107.66;;;11.32;100.00
13080;BME280;6606;49.154;9.280;2022-10-31T00:48:36;100113.91;;;11.31;100.00
13080;BME280;6606;49.154;9.280;2022-10-31T00:51:05;100115.78;;;11.29;100.00
13080;BME280;6606;49.154;9.280;2022-10-31T00:53:31;100116.97;;;11.21;100.00
13080;BME280;6606;49.154;9.280;2022-10-31T00:55:58;100117.97;;;11.19;100.00
13080;BME280;6606;49.154;9.280;2022-10-31T00:58:25;100113.75;;;11.15;100.00
13080;BME280;6606;49.154;9.280;2022-10-31T01:00:51;100110.19;;;10.95;100.00
13080;BME280;6606;49.154;9.280;2022-10-31T01:03:22;100112.34;;;10.87;100.00
13080;BME280;6606;49.154;9.280;2022-10-31T01:05:59;100111.44;;;10.88;100.00
13080;BME280;6606;49.154;9.280;2022-10-31T01:08:28;100107.03;;;10.87;100.00
13080;BME280;6606;49.154;9.280;2022-10-31T01:11:03;100108.78;;;10.88;100.00
13080;BME280;6606;49.154;9.280;2022-10-31T01:13:32;100120.19;;;10.90;100.00
13080;BME280;6606;49.154;9.280;2022-10-31T01:16:01;100104.91;;;10.95;100.00
13080;BME280;6606;49.154;9.280;2022-10-31T01:18:28;100099.47;;;10.98;100.00
13080;BME280;6606;49.154;9.280;2022-10-31T01:21:03;100105.03;;;10.92;100.00
13080;BME280;6606;49.154;9.280;2022-10-31T01:23:32;100100.53;;;10.94;100.00
13080;BME280;6606;49.154;9.280;2022-10-31T01:26:04;100104.97;;;10.94;100.00
13080;BME280;6606;49.154;9.280;2022-10-31T01:28:31;100098.03;;;10.91;100.00
13080;BME280;6606;49.154;9.280;2022-10-31T01:31:00;100104.53;;;10.84;100.00
13080;BME280;6606;49.154;9.280;2022-10-31T01:33:27;100103.63;;;10.85;100.00
13080;BME280;6606;49.154;9.280;2022-10-31T01:35:54;100101.00;;;10.84;100.00
13080;BME280;6606;49.154;9.280;2022-10-31T01:38:21;100101.72;;;10.87;100.00
13080;BME280;6606;49.154;9.280;2022-10-31T01:40:50;100103.63;;;10.85;100.00
13080;BME280;6606;49.154;9.280;2022-10-31T01:43:17;100103.63;;;10.85;100.00
13080;BME280;6606;49.154;9.280;2022-10-31T01:45:47;100107.84;;;10.89;100.00
13080;BME280;6606;49.154;9.280;2022-10-31T01:48:19;100096.44;;;10.87;100.00
13080;BME280;6606;49.154;9.280;2022-10-31T01:50:48;100113.22;;;10.88;100.00
13080;BME280;6606;49.154;9.280;2022-10-31T01:53:17;100096.72;;;10.81;100.00
13080;BME280;6606;49.154;9.280;2022-10-31T01:55:45;100097.66;;;10.80;100.00
13080;BME280;6606;49.154;9.280;2022-10-31T01:58:19;100104.72;;;10.79;100.00
13080;BME280;6606;49.154;9.280;2022-10-31T02:00:51;100109.81;;;10.84;100.00
13080;BME280;6606;49.154;9.280;2022-10-31T02:03:21;100112.63;;;10.81;100.00
13080;BME280;6606;49.154;9.280;2022-10-31T02:05:49;100103.63;;;10.85;100.00
13080;BME280;6606;49.154;9.280;2022-10-31T02:08:20;100112.75;;;10.78;100.00
13080;BME280;6606;49.154;9.280;2022-10-31T02:10:49;100103.47;;;10.88;100.00
13080;BME280;6606;49.154;9.280;2022-10-31T02:13:18;100106.19;;;10.87;100.00
13080;BME280;6606;49.154;9.280;2022-10-31T02:15:51;100100.88;;;10.87;100.00
13080;BME280;6606;49.154;9.280;2022-10-31T02:18:19;100100.72;;;10.90;100.00
13080;BME280;6606;49.154;9.280;2022-10-31T02:20:54;100110.19;;;10.95;100.00
13080;BME280;6606;49.154;9.280;2022-10-31T02:26:39;100109.50;;;11.11;100.00
13080;BME280;6606;49.154;9.280;2022-10-31T02:29:31;100111.03;;;11.16;100.00
13080;BME280;6606;49.154;9.280;2022-10-31T02:32:10;100103.66;;;11.23;100.00
13080;BME280;6606;49.154;9.280;2022-10-31T02:34:45;100100.41;;;11.16;100.00
13080;BME280;6606;49.154;9.280;2022-10-31T02:37:25;100104.59;;;11.22;100.00
13080;BME280;6606;49.154;9.280;2022-10-31T02:39:58;100109.53;;;11.30;100.00
13080;BME280;6606;49.154;9.280;2022-10-31T02:42:47;100105.97;;;11.31;100.00
13080;BME280;6606;49.154;9.280;2022-10-31T02:45:22;100106.53;;;11.37;100.00
13080;BME280;6606;49.154;9.280;2022-10-31T02:47:56;100105.38;;;11.43;100.00
13080;BME280;6606;49.154;9.280;2022-10-31T02:50:29;100107.97;;;11.44;100.00
13080;BME280;6606;49.154;9.280;2022-10-31T02:52:58;100112.56;;;11.41;100.00
13080;BME280;6606;49.154;9.280;2022-10-31T02:55:50;100108.31;;;11.37;100.00
13080;BME280;6606;49.154;9.280;2022-10-31T02:58:19;100106.63;;;11.36;100.00
13080;BME280;6606;49.154;9.280;2022-10-31T03:00:59;100099.16;;;11.44;100.00
13080;BME280;6606;49.154;9.280;2022-10-31T03:03:34;100102.00;;;11.39;100.00
13080;BME280;6606;49.154;9.280;2022-10-31T03:06:09;100099.50;;;11.36;100.00
13080;BME280;6606;49.154;9.280;2022-10-31T03:08:45;100103.09;;;11.35;100.00
13080;BME280;6606;49.154;9.280;2022-10-31T03:11:18;100106.16;;;11.45;100.00
13080;BME280;6606;49.154;9.280;2022-10-31T03:13:50;100108.63;;;11.50;100.00
13080;BME280;6606;49.154;9.280;2022-10-31T03:16:25;100107.41;;;11.57;100.00
13080;BME280;6606;49.154;9.280;2022-10-31T03:19:01;100100.50;;;11.53;100.00
13080;BME280;6606;49.154;9.280;2022-10-31T03:21:32;100099.78;;;11.49;100.00
13080;BME280;6606;49.154;9.280;2022-10-31T03:24:05;100099.22;;;11.42;100.00
13080;BME280;6606;49.154;9.280;2022-10-31T03:26:35;100100.22;;;11.40;100.00
13080;BME280;6606;49.154;9.280;2022-10-31T03:29:06;100098.19;;;11.45;100.00
13080;BME280;6606;49.154;9.280;2022-10-31T03:31:41;100108.81;;;11.45;100.00
13080;BME280;6606;49.154;9.280;2022-10-31T03:34:16;100108.41;;;11.54;100.00
13080;BME280;6606;49.154;9.280;2022-10-31T03:36:45;100117.88;;;11.60;100.00
13080;BME280;6606;49.154;9.280;2022-10-31T03:39:14;100113.19;;;11.65;100.00
13080;BME280;6606;49.154;9.280;2022-10-31T03:41:45;100113.13;;;11.48;100.00
13080;BME280;6606;49.154;9.280;2022-10-31T03:44:16;100107.81;;;11.48;100.00
13080;BME280;6606;49.154;9.280;2022-10-31T03:46:52;100112.13;;;11.50;100.00
13080;BME280;6606;49.154;9.280;2022-10-31T03:49:21;100109.69;;;11.45;100.00
13080;BME280;6606;49.154;9.280;2022-10-31T03:51:56;100109.63;;;11.47;100.00
13080;BME280;6606;49.154;9.280;2022-10-31T03:54:27;100108.25;;;11.57;100.00
13080;BME280;6606;49.154;9.280;2022-10-31T03:57:02;100116.00;;;11.62;100.00
13080;BME280;6606;49.154;9.280;2022-10-31T03:59:34;100116.13;;;11.59;100.00
13080;BME280;6606;49.154;9.280;2022-10-31T04:02:04;100113.47;;;11.59;100.00
13080;BME280;6606;49.154;9.280;2022-10-31T04:04:33;100102.59;;;11.65;100.00
13080;BME280;6606;49.154;9.280;2022-10-31T04:07:01;100106.94;;;11.66;100.00
13080;BME280;6606;49.154;9.280;2022-10-31T04:09:32;100104.59;;;11.60;100.00
13080;BME280;6606;49.154;9.280;2022-10-31T04:12:00;100102.44;;;11.68;100.00
13080;BME280;6606;49.154;9.280;2022-10-31T04:14:41;100097.69;;;11.56;100.00
13080;BME280;6606;49.154;9.280;2022-10-31T04:17:11;100100.94;;;11.62;100.00
13080;BME280;6606;49.154;9.280;2022-10-31T04:19:42;100093.09;;;11.40;100.00
13080;BME280;6606;49.154;9.280;2022-10-31T04:22:09;100092.34;;;11.38;100.00
13080;BME280;6606;49.154;9.280;2022-10-31T04:24:38;100095.06;;;11.37;100.00
13080;BME280;6606;49.154;9.280;2022-10-31T04:27:07;100096.50;;;11.44;100.00
13080;BME280;6606;49.154;9.280;2022-10-31T04:29:33;100094.84;;;11.41;100.00
13080;BME280;6606;49.154;9.280;2022-10-31T04:32:00;100084.63;;;11.32;100.00
13080;BME280;6606;49.154;9.280;2022-10-31T04:34:27;100091.47;;;11.38;100.00
13080;BME280;6606;49.154;9.280;2022-10-31T04:36:55;100082.56;;;11.39;100.00
13080;BME280;6606;49.154;9.280;2022-10-31T04:39:21;100082.63;;;11.37;100.00
13080;BME280;6606;49.154;9.280;2022-10-31T04:42:08;100083.88;;;11.30;100.00
13080;BME280;6606;49.154;9.280;2022-10-31T04:44:34;100083.13;;;11.27;100.00
13080;BME280;6606;49.154;9.280;2022-10-31T04:47:01;100084.59;;;11.15;100.00
13080;BME280;6606;49.154;9.280;2022-10-31T04:49:28;100081.13;;;11.13;100.00
13080;BME280;6606;49.154;9.280;2022-10-31T04:51:56;100082.97;;;11.11;100.00
13080;BME280;6606;49.154;9.280;2022-10-31T04:54:23;100079.56;;;11.09;100.00
13080;BME280;6606;49.154;9.280;2022-10-31T04:57:08;100076.63;;;11.15;100.00
13080;BME280;6606;49.154;9.280;2022-10-31T04:59:36;100078.97;;;11.21;100.00
13080;BME280;6606;49.154;9.280;2022-10-31T05:02:03;100077.63;;;11.12;100.00
13080;BME280;6606;49.154;9.280;2022-10-31T05:04:42;100076.91;;;11.09;100.00
13080;BME280;6606;49.154;9.280;2022-10-31T05:07:10;100067.50;;;11.02;100.00
13080;BME280;6606;49.154;9.280;2022-10-31T05:09:37;100069.22;;;11.03;100.00
13080;BME280;6606;49.154;9.280;2022-10-31T05:12:04;100072.53;;;11.08;100.00
13080;BME280;6606;49.154;9.280;2022-10-31T05:15:09;100056.81;;;11.03;100.00
13080;BME280;6606;49.154;9.280;2022-10-31T05:17:59;100061.00;;;11.09;100.00
13080;BME280;6606;49.154;9.280;2022-10-31T05:20:48;100058.19;;;11.12;100.00
13080;BME280;6606;49.154;9.280;2022-10-31T05:23:24;100052.44;;;11.21;100.00
13080;BME280;6606;49.154;9.280;2022-10-31T05:25:50;100055.91;;;11.23;100.00
13080;BME280;6606;49.154;9.280;2022-10-31T05:28:17;100060.75;;;11.13;100.00
13080;BME280;6606;49.154;9.280;2022-10-31T05:30:44;100065.41;;;11.08;100.00
13080;BME280;6606;49.154;9.280;2022-10-31T05:33:14;100059.25;;;11.08;100.00
13080;BME280;6606;49.154;9.280;2022-10-31T05:35:59;100056.47;;;11.11;100.00
13080;BME280;6606;49.154;9.280;2022-10-31T05:38:30;100059.06;;;11.12;100.00
13080;BME280;6606;49.154;9.280;2022-10-31T05:41:02;100056.25;;;11.15;100.00
13080;BME280;6606;49.154;9.280;2022-10-31T05:43:30;100056.19;;;11.17;100.00
13080;BME280;6606;49.154;9.280;2022-10-31T05:45:58;100058.34;;;11.09;100.00
13080;BME280;6606;49.154;9.280;2022-10-31T05:49:00;100045.63;;;10.96;100.00
13080;BME280;6606;49.154;9.280;2022-10-31T05:51:45;100044.44;;;11.04;100.00
13080;BME280;6606;49.154;9.280;2022-10-31T05:54:14;100047.75;;;11.09;100.00
13080;BME280;6606;49.154;9.280;2022-10-31T05:56:42;100047.75;;;11.09;100.00
13080;BME280;6606;49.154;9.280;2022-10-31T05:59:08;100047.13;;;11.02;100.00
13080;BME280;6606;49.154;9.280;2022-10-31T06:01:35;100053.16;;;11.06;100.00
13080;BME280;6606;49.154;9.280;2022-10-31T06:04:05;100053.44;;;10.99;100.00
13080;BME280;6606;49.154;9.280;2022-10-31T06:06:33;100050.00;;;10.97;100.00
13080;BME280;6606;49.154;9.280;2022-10-31T06:08:59;100053.75;;;10.93;100.00
13080;BME280;6606;49.154;9.280;2022-10-31T06:11:29;100062.91;;;10.86;100.00
13080;BME280;6606;49.154;9.280;2022-10-31T06:14:02;100053.44;;;10.81;100.00
13080;BME280;6606;49.154;9.280;2022-10-31T06:16:44;100051.97;;;10.73;100.00
13080;BME280;6606;49.154;9.280;2022-10-31T06:19:40;100061.72;;;10.73;100.00
13080;BME280;6606;49.154;9.280;2022-10-31T06:22:08;100063.72;;;10.68;100.00
13080;BME280;6606;49.154;9.280;2022-10-31T06:24:36;100055.09;;;10.63;100.00
13080;BME280;6606;49.154;9.280;2022-10-31T06:27:17;100052.59;;;10.60;100.00
13080;BME280;6606;49.154;9.280;2022-10-31T06:29:44;100057.09;;;10.57;100.00
13080;BME280;6606;49.154;9.280;2022-10-31T06:32:19;100057.22;;;10.54;100.00
13080;BME280;6606;49.154;9.280;2022-10-31T06:34:45;100051.00;;;10.55;100.00
13080;BME280;6606;49.154;9.280;2022-10-31T06:37:14;100063.34;;;10.56;100.00
13080;BME280;6606;49.154;9.280;2022-10-31T06:39:44;100065.00;;;10.59;100.00
13080;BME280;6606;49.154;9.280;2022-10-31T06:42:16;100065.19;;;10.54;100.00
13080;BME280;6606;49.154;9.280;2022-10-31T06:44:43;100061.50;;;10.59;100.00
13080;BME280;6606;49.154;9.280;2022-10-31T06:47:28;100071.09;;;10.61;100.00
13080;BME280;6606;49.154;9.280;2022-10-31T06:50:06;100064.66;;;10.67;100.00
13080;BME280;6606;49.154;9.280;2022-10-31T06:52:33;100069.97;;;10.67;100.00
13080;BME280;6606;49.154;9.280;2022-10-31T06:55:01;100071.66;;;10.68;100.00
13080;BME280;6606;49.154;9.280;2022-10-31T06:57:31;100070.88;;;10.66;100.00
13080;BME280;6606;49.154;9.280;2022-10-31T06:59:57;100074.03;;;10.74;100.00
13080;BME280;6606;49.154;9.280;2022-10-31T07:02:32;100067.53;;;10.81;100.00
13080;BME280;6606;49.154;9.280;2022-10-31T07:04:59;100062.47;;;10.95;100.00
13080;BME280;6606;49.154;9.280;2022-10-31T07:07:26;100072.97;;;10.98;100.00
13080;BME280;6606;49.154;9.280;2022-10-31T07:09:53;100066.34;;;10.88;100.00
13080;BME280;6606;49.154;9.280;2022-10-31T07:12:36;100069.88;;;11.08;100.00
13080;BME280;6606;49.154;9.280;2022-10-31T07:15:03;100066.38;;;11.07;100.00
13080;BME280;6606;49.154;9.280;2022-10-31T07:17:30;100073.31;;;11.10;100.00
13080;BME280;6606;49.154;9.280;2022-10-31T07:19:59;100065.34;;;11.10;100.00
13080;BME280;6606;49.154;9.280;2022-10-31T07:22:32;100076.13;;;11.07;100.00
13080;BME280;6606;49.154;9.280;2022-10-31T07:24:58;100073.13;;;11.14;100.00
13080;BME280;6606;49.154;9.280;2022-10-31T07:27:45;100076.41;;;11.38;100.00
13080;BME280;6606;49.154;9.280;2022-10-31T07:30:12;100078.97;;;11.40;100.00
13080;BME280;6606;49.154;9.280;2022-10-31T07:32:40;100084.28;;;11.40;100.00
13080;BME280;6606;49.154;9.280;2022-10-31T07:35:08;100080.56;;;11.25;100.00
13080;BME280;6606;49.154;9.280;2022-10-31T07:37:53;100083.59;;;11.36;100.00
13080;BME280;6606;49.154;9.280;2022-10-31T07:40:22;100081.63;;;11.59;100.00
13080;BME280;6606;49.154;9.280;2022-10-31T07:42:52;100079.75;;;11.61;100.00
13080;BME280;6606;49.154;9.280;2022-10-31T07:45:43;100084.28;;;11.59;100.00
13080;BME280;6606;49.154;9.280;2022-10-31T07:48:29;100085.16;;;11.59;100.00
13080;BME280;6606;49.154;9.280;2022-10-31T07:51:14;100078.84;;;11.62;100.00
13080;BME280;6606;49.154;9.280;2022-10-31T07:54:00;100078.38;;;11.71;100.00
13080;BME280;6606;49.154;9.280;2022-10-31T07:56:29;100081.88;;;11.91;100.00
13080;BME280;6606;49.154;9.280;2022-10-31T07:58:57;100084.41;;;11.94;100.00
13080;BME280;6606;49.154;9.280;2022-10-31T08:01:24;100089.25;;;12.03;100.00
13080;BME280;6606;49.154;9.280;2022-10-31T08:04:26;100083.59;;;12.28;100.00
13080;BME280;6606;49.154;9.280;2022-10-31T08:07:11;100081.94;;;12.43;100.00
13080;BME280;6606;49.154;9.280;2022-10-31T08:09:43;100075.53;;;12.47;100.00
13080;BME280;6606;49.154;9.280;2022-10-31T08:12:18;100082.69;;;12.27;100.00
13080;BME280;6606;49.154;9.280;2022-10-31T08:14:46;100080.06;;;12.45;100.00
13080;BME280;6606;49.154;9.280;2022-10-31T08:17:16;100083.31;;;12.67;100.00
13080;BME280;6606;49.154;9.280;2022-10-31T08:19:50;100077.69;;;12.56;100.00
13080;BME280;6606;49.154;9.280;2022-10-31T08:22:18;100077.69;;;12.56;100.00
13080;BME280;6606;49.154;9.280;2022-10-31T08:24:47;100078.94;;;12.66;100.00
13080;BME280;6606;49.154;9.280;2022-10-31T08:27:13;100077.19;;;12.83;100.00
13080;BME280;6606;49.154;9.280;2022-10-31T08:29:40;100066.34;;;13.03;100.00
13080;BME280;6606;49.154;9.280;2022-10-31T08:32:08;100066.88;;;12.76;100.00
13080;BME280;6606;49.154;9.280;2022-10-31T08:34:54;100064.75;;;12.83;100.00
13080;BME280;6606;49.154;9.280;2022-10-31T08:37:39;100066.53;;;12.83;100.00
13080;BME280;6606;49.154;9.280;2022-10-31T08:40:07;100062.81;;;13.03;100.00
13080;BME280;6606;49.154;9.280;2022-10-31T08:42:34;100063.78;;;13.17;100.00
13080;BME280;6606;49.154;9.280;2022-10-31T08:45:02;100062.03;;;13.34;100.00
13080;BME280;6606;49.154;9.280;2022-10-31T08:47:32;100060.13;;;13.36;100.00
13080;BME280;6606;49.154;9.280;2022-10-31T08:49:58;100059.88;;;13.40;100.00
13080;BME280;6606;49.154;9.280;2022-10-31T08:52:25;100056.25;;;13.57;100.00
13080;BME280;6606;49.154;9.280;2022-10-31T08:54:57;100051.44;;;13.80;100.00
13080;BME280;6606;49.154;9.280;2022-10-31T08:57:43;100057.81;;;13.77;100.00
13080;BME280;6606;49.154;9.280;2022-10-31T09:00:11;100048.81;;;13.94;100.00
13080;BME280;6606;49.154;9.280;2022-10-31T09:02:57;100056.72;;;14.12;100.00
13080;BME280;6606;49.154;9.280;2022-10-31T09:05:25;100053.09;;;14.13;100.00
13080;BME280;6606;49.154;9.280;2022-10-31T09:07:55;100044.44;;;14.23;100.00
13080;BME280;6606;49.154;9.280;2022-10-31T09:10:22;100041.72;;;14.39;100.00
13080;BME280;6606;49.154;9.280;2022-10-31T09:12:54;100040.41;;;14.46;100.00
13080;BME280;6606;49.154;9.280;2022-10-31T09:15:34;100038.47;;;14.34;100.00
13080;BME280;6606;49.154;9.280;2022-10-31T09:18:16;100033.91;;;14.36;100.00
13080;BME280;6606;49.154;9.280;2022-10-31T09:20:50;100034.09;;;14.33;100.00
13080;BME280;6606;49.154;9.280;2022-10-31T09:23:18;100025.84;;;14.38;100.00
13080;BME280;6606;49.154;9.280;2022-10-31T09:25:48;100026.09;;;14.63;100.00
13080;BME280;6606;49.154;9.280;2022-10-31T09:28:35;100031.03;;;14.69;100.00
13080;BME280;6606;49.154;9.280;2022-10-31T09:31:11;100018.56;;;14.56;100.00
13080;BME280;6606;49.154;9.280;2022-10-31T09:33:56;100031.72;;;14.59;100.00
13080;BME280;6606;49.154;9.280;2022-10-31T09:36:32;100020.56;;;14.66;100.00
13080;BME280;6606;49.154;9.280;2022-10-31T09:38:58;100023.34;;;14.79;100.00
13080;BME280;6606;49.154;9.280;2022-10-31T09:41:30;100021.22;;;14.84;100.00
13080;BME280;6606;49.154;9.280;2022-10-31T09:44:05;100029.06;;;14.87;100.00
13080;BME280;6606;49.154;9.280;2022-10-31T09:46:42;100026.38;;;15.02;100.00
13080;BME280;6606;49.154;9.280;2022-10-31T09:49:36;100018.91;;;15.21;100.00
13080;BME280;6606;49.154;9.280;2022-10-31T09:52:11;100021.19;;;15.27;100.00
13080;BME280;6606;49.154;9.280;2022-10-31T09:54:44;100012.53;;;15.09;100.00
13080;BME280;6606;49.154;9.280;2022-10-31T09:57:15;100008.41;;;15.32;100.00
13080;BME280;6606;49.154;9.280;2022-10-31T09:59:47;100010.22;;;15.59;100.00
13080;BME280;6606;49.154;9.280;2022-10-31T10:02:21;100008.72;;;15.69;100.00
13080;BME280;6606;49.154;9.280;2022-10-31T10:04:54;100011.84;;;15.89;100.00
13080;BME280;6606;49.154;9.280;2022-10-31T10:07:35;100010.41;;;16.10;100.00
13080;BME280;6606;49.154;9.280;2022-10-31T10:10:31;100010.84;;;16.04;100.00
13080;BME280;6606;49.154;9.280;2022-10-31T10:13:40;100012.09;;;16.11;100.00
13080;BME280;6606;49.154;9.280;2022-10-31T10:16:23;100006.56;;;16.14;100.00
13080;BME280;6606;49.154;9.280;2022-10-31T10:19:05;100021.19;;;16.09;100.00
13080;BME280;6606;49.154;9.280;2022-10-31T10:21:41;100015.28;;;15.91;100.00
13080;BME280;6606;49.154;9.280;2022-10-31T10:24:19;100017.44;;;15.71;100.00
13080;BME280;6606;49.154;9.280;2022-10-31T10:26:53;100013.75;;;15.59;100.00
13080;BME280;6606;49.154;9.280;2022-10-31T10:29:33;100006.59;;;15.60;100.00
13080;BME280;6606;49.154;9.280;2022-10-31T10:32:05;100005.00;;;15.85;100.00
13080;BME280;6606;49.154;9.280;2022-10-31T10:34:41;100001.50;;;15.97;100.00
13080;BME280;6606;49.154;9.280;2022-10-31T10:37:20;99995.81;;;15.89;100.00
13080;BME280;6606;49.154;9.280;2022-10-31T10:39:52;99992.59;;;15.83;100.00
13080;BME280;6606;49.154;9.280;2022-10-31T10:42:22;99997.97;;;15.96;100.00
13080;BME280;6606;49.154;9.280;2022-10-31T10:45:14;99991.56;;;15.99;100.00
13080;BME280;6606;49.154;9.280;2022-10-31T10:48:05;99987.03;;;15.87;100.00
13080;BME280;6606;49.154;9.280;2022-10-31T10:50:36;99986.41;;;15.83;100.00
13080;BME280;6606;49.154;9.280;2022-10-31T10:53:15;99985.50;;;16.10;100.00
13080;BME280;6606;49.154;9.280;2022-10-31T10:55:51;99988.38;;;16.32;100.00
13080;BME280;6606;49.154;9.280;2022-10-31T10:58:20;99984.78;;;16.46;100.00
13080;BME280;6606;49.154;9.280;2022-10-31T11:00:47;99973.84;;;16.62;100.00
13080;BME280;6606;49.154;9.280;2022-10-31T11:03:15;99965.25;;;16.95;100.00
13080;BME280;6606;49.154;9.280;2022-10-31T11:05:46;99961.09;;;16.91;100.00
13080;BME280;6606;49.154;9.280;2022-10-31T11:08:24;99949.53;;;17.14;100.00
13080;BME280;6606;49.154;9.280;2022-10-31T11:10:59;99950.16;;;17.31;100.00
13080;BME280;6606;49.154;9.280;2022-10-31T11:13:27;99941.94;;;17.21;100.00
13080;BME280;6606;49.154;9.280;2022-10-31T11:15:58;99942.56;;;17.25;100.00
13080;BME280;6606;49.154;9.280;2022-10-31T11:18:27;99952.19;;;17.27;100.00
13080;BME280;6606;49.154;9.280;2022-10-31T11:20:56;99941.09;;;17.45;100.00
13080;BME280;6606;49.154;9.280;2022-10-31T11:23:26;99937.31;;;17.71;100.00
13080;BME280;6606;49.154;9.280;2022-10-31T11:25:56;99927.16;;;17.88;100.00
13080;BME280;6606;49.154;9.280;2022-10-31T11:28:23;99933.09;;;17.80;100.00
13080;BME280;6606;49.154;9.280;2022-10-31T11:30:51;99923.84;;;17.84;100.00
13080;BME280;6606;49.154;9.280;2022-10-31T11:33:24;99915.47;;;18.00;100.00
13080;BME280;6606;49.154;9.280;2022-10-31T11:35:53;99909.72;;;17.93;100.00
13080;BME280;6606;49.154;9.280;2022-10-31T11:38:22;99910.97;;;18.12;100.00
13080;BME280;6606;49.154;9.280;2022-10-31T11:40:59;99901.47;;;18.08;100.00
13080;BME280;6606;49.154;9.280;2022-10-31T11:43:26;99893.44;;;18.30;100.00
13080;BME280;6606;49.154;9.280;2022-10-31T11:45:53;99893.34;;;18.32;100.00
13080;BME280;6606;49.154;9.280;2022-10-31T11:48:21;99891.00;;;18.27;100.00
13080;BME280;6606;49.154;9.280;2022-10-31T11:50:50;99887.22;;;18.30;100.00
13080;BME280;6606;49.154;9.280;2022-10-31T11:53:21;99881.25;;;18.37;100.00
13080;BME280;6606;49.154;9.280;2022-10-31T11:56:03;99887.09;;;18.54;100.00
13080;BME280;6606;49.154;9.280;2022-10-31T11:58:30;99884.91;;;18.59;100.00
13080;BME280;6606;49.154;9.280;2022-10-31T12:00:57;99877.13;;;18.44;100.00
13080;BME280;6606;49.154;9.280;2022-10-31T12:03:34;99863.56;;;18.46;100.00
13080;BME280;6606;49.154;9.280;2022-10-31T12:06:07;99859.56;;;18.18;100.00
13080;BME280;6606;49.154;9.280;2022-10-31T12:08:38;99865.88;;;18.28;100.00
13080;BME280;6606;49.154;9.280;2022-10-31T12:11:13;99867.09;;;18.24;100.00
13080;BME280;6606;49.154;9.280;2022-10-31T12:13:55;99857.84;;;18.39;100.00
13080;BME280;6606;49.154;9.280;2022-10-31T12:16:28;99853.19;;;18.53;100.00
13080;BME280;6606;49.154;9.280;2022-10-31T12:19:01;99855.13;;;18.51;100.00
13080;BME280;6606;49.154;9.280;2022-10-31T12:21:43;99848.88;;;18.73;100.00
13080;BME280;6606;49.154;9.280;2022-10-31T12:24:26;99840.25;;;18.58;100.00
13080;BME280;6606;49.154;9.280;2022-10-31T12:27:02;99849.72;;;18.96;100.00
13080;BME280;6606;49.154;9.280;2022-10-31T12:29:47;99845.56;;;19.03;100.00
13080;BME280;6606;49.154;9.280;2022-10-31T12:32:28;99848.50;;;18.88;100.00
13080;BME280;6606;49.154;9.280;2022-10-31T12:35:08;99844.13;;;18.87;100.00
13080;BME280;6606;49.154;9.280;2022-10-31T12:37:49;99839.97;;;18.83;100.00
13080;BME280;6606;49.154;9.280;2022-10-31T12:40:38;99833.25;;;18.89;100.00
13080;BME280;6606;49.154;9.280;2022-10-31T12:43:20;99830.53;;;19.00;100.00
13080;BME280;6606;49.154;9.280;2022-10-31T12:45:53;99822.59;;;18.99;100.00
13080;BME280;6606;49.154;9.280;2022-10-31T12:48:35;99823.19;;;19.02;100.00
13080;BME280;6606;49.154;9.280;2022-10-31T12:51:15;99809.63;;;19.04;100.00
13080;BME280;6606;49.154;9.280;2022-10-31T12:53:59;99812.38;;;19.25;100.00
13080;BME280;6606;49.154;9.280;2022-10-31T12:56:42;99798.59;;;19.39;100.00
13080;BME280;6606;49.154;9.280;2022-10-31T12:59:17;99797.63;;;19.40;100.00
13080;BME280;6606;49.154;9.280;2022-10-31T13:01:51;99778.75;;;19.51;100.00
13080;BME280;6606;49.154;9.280;2022-10-31T13:04:28;99769.22;;;19.47;100.00
13080;BME280;6606;49.154;9.280;2022-10-31T13:07:01;99780.13;;;19.46;100.00
13080;BME280;6606;49.154;9.280;2022-10-31T13:09:35;99777.53;;;19.65;100.00
13080;BME280;6606;49.154;9.280;2022-10-31T13:12:07;99766.88;;;19.75;100.00
13080;BME280;6606;49.154;9.280;2022-10-31T13:14:39;99765.75;;;19.77;100.00
13080;BME280;6606;49.154;9.280;2022-10-31T13:17:13;99764.31;;;19.73;100.00
13080;BME280;6606;49.154;9.280;2022-10-31T13:19:43;99766.41;;;19.49;100.00
13080;BME280;6606;49.154;9.280;2022-10-31T13:22:16;99773.47;;;19.08;100.00
13080;BME280;6606;49.154;9.280;2022-10-31T13:24:48;99764.53;;;19.07;100.00
13080;BME280;6606;49.154;9.280;2022-10-31T13:27:21;99766.38;;;19.07;100.00